Mobile, AL

6:09 AM CST on December 05, 2016 (GMT -0600)
Breckenridge Subdivision | | Change Station

Elev 194 ft 30.69 °N, 88.28 °W | Updated 23 seconds ago

Fog
Fog
57.0 °F
Feels Like 57.0 °F
N
0.0
Wind Variable Wind from NW
Gusts 2.0 mph

Today
High -- | Low -- °F
--% Chance of Precip.
Yesterday
High -- | Low -- °F
Precip. -- in
Pressure 29.92 in
Visibility 0.5 miles
Clouds Overcast 200 ft
Dew Point 56 °F
Humidity 98%
Rainfall 0.00 in
Snow Depth Not available.
6:36 AM 4:51 PM
Waxing Crescent, 31% visible
METAR KMOB 051156Z 01007KT 1/2SM FG OVC002 14/13 A2992 RMK AO2 SLP130 70186 T01390128 10161 20139 53003 $
Pressure 29.92 in
Visibility 0.5 miles
Clouds Overcast 200 ft
Dew Point 56 °F
Humidity 98%
Rainfall 0.00 in
Snow Depth Not available.
6:36 AM 4:51 PM
Waxing Crescent, 31% visible
METAR KMOB 051156Z 01007KT 1/2SM FG OVC002 14/13 A2992 RMK AO2 SLP130 70186 T01390128 10161 20139 53003 $

10-Day Weather Forecast

Almanac

Astronomy

Dec. 05, 2016 Rise Set
Actual Time
Civil Twilight
Nautical Twilight
Astronomical Twilight
Moon
Length of Visible Light
Length of Day
Tomorrow will be .
, % of the Moon is Illuminated

Today's Extremes

State Highs State Lows

Community

WunderPhotos

Upload Photos

1,955,779 photos uploaded!

WunderBlog® & News

Nearby

Air Quality

  Air Quality AQ Index Pollutant
Not available.

Snow Depth

Station Depth Elevation

Earthquake Activity

City Distance Mag. Time & Date
Minimum magnitude displayed is 2.5.

Coastal Water Temperatures

Place Temperature

Stations

Nearby Weather Stations

Station Location Temp. Windchill Dew Point Humidity Wind Precip. Elev Updated Type
                   

Watches & Warnings

There are currently no watches in effect.